createdAt,value
2022-11-24T00:04:26.899Z,5.47
2022-11-24T00:14:28.423Z,6.23
2022-11-24T00:24:29.937Z,4.80
2022-11-24T00:34:32.661Z,5.40
2022-11-24T00:44:34.485Z,4.93
2022-11-24T00:54:36.113Z,5.57
2022-11-24T01:04:37.647Z,5.30
2022-11-24T01:14:39.181Z,5.17
2022-11-24T01:24:40.859Z,4.73
2022-11-24T01:34:42.406Z,4.33
2022-11-24T01:44:43.960Z,3.90
2022-11-24T01:54:56.234Z,4.10
2022-11-24T02:05:03.198Z,4.10
2022-11-24T02:15:05.144Z,3.55
2022-11-24T02:25:15.376Z,3.60
2022-11-24T02:35:17.356Z,2.20
2022-11-24T02:45:19.094Z,1.42
2022-11-24T02:55:20.653Z,1.90
2022-11-24T03:05:22.178Z,1.13
2022-11-24T03:15:23.979Z,1.10
2022-11-24T03:25:25.705Z,1.70
2022-11-24T03:35:27.245Z,1.73
2022-11-24T03:55:50.358Z,1.50
2022-11-24T04:05:51.967Z,1.80
2022-11-24T04:15:53.991Z,1.80
2022-11-24T04:25:55.580Z,1.47
2022-11-24T04:35:57.227Z,1.90
2022-11-24T04:46:02.017Z,1.37
2022-11-24T04:56:06.834Z,0.53
2022-11-24T05:06:08.395Z,0.30
2022-11-24T05:16:09.965Z,0.40
2022-11-24T05:26:11.633Z,0.20
2022-11-24T05:36:13.188Z,0.40
2022-11-24T05:46:14.764Z,0.60
2022-11-24T05:56:16.276Z,0.80
2022-11-24T06:06:17.788Z,0.82
2022-11-24T06:16:19.294Z,0.93
2022-11-24T06:26:20.834Z,0.70
2022-11-24T06:36:22.486Z,1.00
2022-11-24T06:46:24.396Z,1.00
2022-11-24T06:56:26.084Z,1.37
2022-11-24T07:06:27.728Z,2.40
2022-11-24T07:16:29.587Z,1.33
2022-11-24T07:26:31.234Z,1.93
2022-11-24T07:36:32.761Z,1.42
2022-11-24T07:46:34.260Z,1.10
2022-11-24T07:56:35.762Z,0.97
2022-11-24T08:06:40.825Z,0.93
2022-11-24T08:16:44.797Z,0.83
2022-11-24T08:26:46.320Z,1.58
2022-11-24T08:36:47.821Z,1.67
2022-11-24T08:46:49.784Z,2.70
2022-11-24T08:56:51.290Z,3.30
2022-11-24T09:06:52.862Z,2.90
2022-11-24T09:16:54.416Z,2.55
2022-11-24T09:26:55.969Z,3.33
2022-11-24T09:36:57.452Z,3.70
2022-11-24T09:47:23.019Z,3.90
2022-11-24T09:57:26.606Z,5.07
2022-11-24T10:07:32.996Z,4.18
2022-11-24T10:18:19.144Z,5.00
2022-11-24T10:28:20.654Z,5.23
2022-11-24T10:38:30.866Z,5.37
2022-11-24T10:48:41.040Z,5.73
2022-11-24T10:58:42.572Z,6.40
2022-11-24T11:08:44.093Z,6.03
2022-11-24T11:18:48.655Z,4.73
2022-11-24T11:39:35.993Z,5.43
2022-11-24T11:49:38.838Z,5.90
2022-11-24T11:59:49.013Z,5.00
2022-11-24T12:10:18.184Z,5.20
2022-11-24T12:20:34.553Z,3.80
2022-11-24T12:30:57.853Z,4.77
2022-11-24T12:41:41.335Z,4.25
2022-11-24T12:51:47.225Z,4.33
2022-11-24T13:02:17.457Z,4.40
2022-11-24T13:12:19.177Z,4.53
2022-11-24T13:22:25.768Z,4.60
2022-11-24T13:32:33.180Z,4.93
2022-11-24T13:42:54.618Z,5.37
2022-11-24T13:53:08.277Z,4.60
2022-11-24T14:03:47.552Z,3.53
2022-11-24T14:14:16.044Z,3.73
2022-11-24T14:24:26.924Z,4.38
2022-11-24T14:34:30.495Z,6.93
2022-11-24T14:44:43.122Z,8.00
2022-11-24T14:54:55.976Z,9.47
2022-11-24T15:05:04.972Z,8.00
2022-11-24T15:15:19.909Z,8.10
2022-11-24T15:25:28.632Z,8.97
2022-11-24T15:35:32.201Z,10.20
2022-11-24T15:45:34.151Z,12.43
2022-11-24T15:55:36.212Z,11.33
2022-11-24T16:05:38.479Z,11.25
2022-11-24T16:15:40.032Z,12.60
2022-11-24T16:25:41.564Z,13.53
2022-11-24T16:35:43.239Z,14.23
2022-11-24T16:45:45.725Z,13.73
2022-11-24T16:55:56.765Z,12.95
2022-11-24T17:06:02.172Z,13.60
2022-11-24T17:16:09.085Z,18.60
2022-11-24T17:26:12.798Z,14.50
2022-11-24T17:36:14.685Z,15.80
2022-11-24T17:46:16.382Z,18.15
2022-11-24T17:56:20.706Z,17.83
2022-11-24T18:06:22.800Z,18.00
2022-11-24T18:16:25.083Z,16.17
2022-11-24T18:26:26.660Z,12.07
2022-11-24T18:36:30.524Z,11.75
2022-11-24T18:46:32.147Z,11.00
2022-11-24T18:56:33.724Z,11.60
2022-11-24T19:06:37.049Z,11.63
2022-11-24T19:16:38.714Z,9.43
2022-11-24T19:26:40.819Z,8.13
2022-11-24T19:36:42.314Z,5.23
2022-11-24T19:46:43.827Z,8.90
2022-11-24T19:56:45.346Z,6.25
2022-11-24T20:06:47.567Z,6.00
2022-11-24T20:16:49.149Z,5.10
2022-11-24T20:26:56.319Z,5.57
2022-11-24T20:36:57.772Z,6.93
2022-11-24T20:46:59.292Z,6.57
2022-11-24T20:57:00.794Z,9.87
2022-11-24T21:07:02.320Z,9.60
2022-11-24T21:17:03.839Z,9.38
2022-11-24T21:27:05.387Z,8.33
2022-11-24T21:37:06.908Z,6.47
2022-11-24T21:47:08.404Z,6.68
2022-11-24T21:57:10.086Z,6.90
2022-11-24T22:07:11.647Z,7.10
2022-11-24T22:17:13.159Z,6.50
2022-11-24T22:27:14.664Z,8.50
2022-11-24T22:37:16.140Z,7.72
2022-11-24T22:47:17.643Z,7.73
2022-11-24T22:57:19.155Z,7.43
2022-11-24T23:07:20.702Z,7.35
2022-11-24T23:17:23.436Z,7.43
2022-11-24T23:27:24.962Z,7.83
2022-11-24T23:37:39.322Z,7.57
2022-11-24T23:47:47.939Z,7.83
2022-11-24T23:57:49.437Z,8.50
